sensor_id;sensor_type;location;lat;lon;timestamp;P1;durP1;ratioP1;P2;durP2;ratioP2
8478;SDS011;4276;49.354;6.804;2023-09-19T00:00:34;2.50;;;2.25;;
8478;SDS011;4276;49.354;6.804;2023-09-19T00:03:02;1.80;;;1.70;;
8478;SDS011;4276;49.354;6.804;2023-09-19T00:05:30;1.77;;;1.40;;
8478;SDS011;4276;49.354;6.804;2023-09-19T00:08:01;2.03;;;1.92;;
8478;SDS011;4276;49.354;6.804;2023-09-19T00:10:31;1.70;;;1.60;;
8478;SDS011;4276;49.354;6.804;2023-09-19T00:13:04;2.00;;;1.80;;
8478;SDS011;4276;49.354;6.804;2023-09-19T00:15:38;2.80;;;2.00;;
8478;SDS011;4276;49.354;6.804;2023-09-19T00:18:18;1.95;;;1.85;;
8478;SDS011;4276;49.354;6.804;2023-09-19T00:20:48;3.03;;;2.00;;
8478;SDS011;4276;49.354;6.804;2023-09-19T00:23:15;2.08;;;1.77;;
8478;SDS011;4276;49.354;6.804;2023-09-19T00:25:42;2.38;;;2.00;;
8478;SDS011;4276;49.354;6.804;2023-09-19T00:28:08;2.95;;;2.10;;
8478;SDS011;4276;49.354;6.804;2023-09-19T00:30:36;2.55;;;2.10;;
8478;SDS011;4276;49.354;6.804;2023-09-19T00:33:04;2.58;;;1.90;;
8478;SDS011;4276;49.354;6.804;2023-09-19T00:35:33;2.13;;;2.00;;
8478;SDS011;4276;49.354;6.804;2023-09-19T00:38:00;2.30;;;2.08;;
8478;SDS011;4276;49.354;6.804;2023-09-19T00:40:26;2.65;;;2.10;;
8478;SDS011;4276;49.354;6.804;2023-09-19T00:42:53;2.15;;;2.00;;
8478;SDS011;4276;49.354;6.804;2023-09-19T00:45:23;2.25;;;2.13;;
8478;SDS011;4276;49.354;6.804;2023-09-19T00:47:50;2.28;;;2.08;;
8478;SDS011;4276;49.354;6.804;2023-09-19T00:50:18;2.83;;;1.98;;
8478;SDS011;4276;49.354;6.804;2023-09-19T00:52:46;1.88;;;1.75;;
8478;SDS011;4276;49.354;6.804;2023-09-19T00:55:13;4.03;;;2.22;;
8478;SDS011;4276;49.354;6.804;2023-09-19T00:57:40;1.90;;;1.80;;
8478;SDS011;4276;49.354;6.804;2023-09-19T01:00:08;2.45;;;2.25;;
8478;SDS011;4276;49.354;6.804;2023-09-19T01:02:42;2.10;;;2.00;;
8478;SDS011;4276;49.354;6.804;2023-09-19T01:05:13;2.22;;;1.88;;
8478;SDS011;4276;49.354;6.804;2023-09-19T01:07:39;2.90;;;2.03;;
8478;SDS011;4276;49.354;6.804;2023-09-19T01:10:11;2.28;;;2.08;;
8478;SDS011;4276;49.354;6.804;2023-09-19T01:12:44;3.53;;;2.15;;
8478;SDS011;4276;49.354;6.804;2023-09-19T01:18:21;5.13;;;2.22;;
8478;SDS011;4276;49.354;6.804;2023-09-19T01:21:05;2.83;;;2.35;;
8478;SDS011;4276;49.354;6.804;2023-09-19T01:26:28;2.50;;;2.30;;
8478;SDS011;4276;49.354;6.804;2023-09-19T01:32:02;3.17;;;2.67;;
8478;SDS011;4276;49.354;6.804;2023-09-19T01:34:47;3.83;;;2.25;;
8478;SDS011;4276;49.354;6.804;2023-09-19T01:37:15;3.97;;;2.42;;
8478;SDS011;4276;49.354;6.804;2023-09-19T01:39:47;3.17;;;2.40;;
8478;SDS011;4276;49.354;6.804;2023-09-19T01:47:54;3.22;;;2.50;;
8478;SDS011;4276;49.354;6.804;2023-09-19T01:50:32;3.90;;;2.28;;
8478;SDS011;4276;49.354;6.804;2023-09-19T01:53:19;4.32;;;2.45;;
8478;SDS011;4276;49.354;6.804;2023-09-19T01:55:50;3.97;;;2.53;;
8478;SDS011;4276;49.354;6.804;2023-09-19T01:58:34;4.43;;;2.30;;
8478;SDS011;4276;49.354;6.804;2023-09-19T02:01:06;5.60;;;2.63;;
8478;SDS011;4276;49.354;6.804;2023-09-19T02:03:35;2.40;;;2.20;;
8478;SDS011;4276;49.354;6.804;2023-09-19T02:06:05;5.68;;;2.85;;
8478;SDS011;4276;49.354;6.804;2023-09-19T02:08:37;3.13;;;2.25;;
8478;SDS011;4276;49.354;6.804;2023-09-19T02:11:04;4.05;;;2.35;;
8478;SDS011;4276;49.354;6.804;2023-09-19T02:13:32;4.15;;;2.25;;
8478;SDS011;4276;49.354;6.804;2023-09-19T02:15:59;4.63;;;2.40;;
8478;SDS011;4276;49.354;6.804;2023-09-19T02:18:26;3.55;;;2.25;;
8478;SDS011;4276;49.354;6.804;2023-09-19T02:20:54;3.38;;;2.55;;
8478;SDS011;4276;49.354;6.804;2023-09-19T02:23:22;2.85;;;2.30;;
8478;SDS011;4276;49.354;6.804;2023-09-19T02:25:55;4.00;;;2.30;;
8478;SDS011;4276;49.354;6.804;2023-09-19T02:28:24;4.13;;;2.60;;
8478;SDS011;4276;49.354;6.804;2023-09-19T02:30:53;5.38;;;2.70;;
8478;SDS011;4276;49.354;6.804;2023-09-19T02:33:20;4.20;;;2.22;;
8478;SDS011;4276;49.354;6.804;2023-09-19T02:35:46;3.08;;;2.42;;
8478;SDS011;4276;49.354;6.804;2023-09-19T02:38:13;3.83;;;2.20;;
8478;SDS011;4276;49.354;6.804;2023-09-19T02:40:40;2.58;;;2.20;;
8478;SDS011;4276;49.354;6.804;2023-09-19T02:43:09;4.28;;;2.10;;
8478;SDS011;4276;49.354;6.804;2023-09-19T02:45:36;3.13;;;2.30;;
8478;SDS011;4276;49.354;6.804;2023-09-19T02:48:03;3.80;;;2.40;;
8478;SDS011;4276;49.354;6.804;2023-09-19T02:50:30;4.22;;;2.35;;
8478;SDS011;4276;49.354;6.804;2023-09-19T02:52:59;2.67;;;2.47;;
8478;SDS011;4276;49.354;6.804;2023-09-19T02:55:26;4.60;;;2.63;;
8478;SDS011;4276;49.354;6.804;2023-09-19T02:57:53;4.53;;;2.60;;
8478;SDS011;4276;49.354;6.804;2023-09-19T03:00:23;3.85;;;2.40;;
8478;SDS011;4276;49.354;6.804;2023-09-19T03:02:50;3.80;;;2.20;;
8478;SDS011;4276;49.354;6.804;2023-09-19T03:05:20;3.05;;;2.40;;
8478;SDS011;4276;49.354;6.804;2023-09-19T03:07:50;5.00;;;2.78;;
8478;SDS011;4276;49.354;6.804;2023-09-19T03:10:20;3.72;;;2.78;;
8478;SDS011;4276;49.354;6.804;2023-09-19T03:12:47;4.75;;;2.45;;
8478;SDS011;4276;49.354;6.804;2023-09-19T03:15:14;4.18;;;2.53;;
8478;SDS011;4276;49.354;6.804;2023-09-19T03:17:46;5.10;;;2.72;;
8478;SDS011;4276;49.354;6.804;2023-09-19T03:20:16;4.25;;;2.70;;
8478;SDS011;4276;49.354;6.804;2023-09-19T03:22:44;3.78;;;2.60;;
8478;SDS011;4276;49.354;6.804;2023-09-19T03:25:11;3.40;;;2.58;;
8478;SDS011;4276;49.354;6.804;2023-09-19T03:27:38;3.85;;;2.50;;
8478;SDS011;4276;49.354;6.804;2023-09-19T03:30:06;3.25;;;2.47;;
8478;SDS011;4276;49.354;6.804;2023-09-19T03:32:35;2.72;;;2.28;;
8478;SDS011;4276;49.354;6.804;2023-09-19T03:35:02;3.22;;;2.30;;
8478;SDS011;4276;49.354;6.804;2023-09-19T03:37:31;3.50;;;2.55;;
8478;SDS011;4276;49.354;6.804;2023-09-19T03:40:01;5.10;;;2.42;;
8478;SDS011;4276;49.354;6.804;2023-09-19T03:42:31;5.32;;;2.55;;
8478;SDS011;4276;49.354;6.804;2023-09-19T03:44:58;2.95;;;2.15;;
8478;SDS011;4276;49.354;6.804;2023-09-19T03:47:27;4.90;;;2.22;;
8478;SDS011;4276;49.354;6.804;2023-09-19T03:49:53;3.72;;;2.20;;
8478;SDS011;4276;49.354;6.804;2023-09-19T03:52:20;4.70;;;2.65;;
8478;SDS011;4276;49.354;6.804;2023-09-19T03:54:49;3.33;;;2.10;;
8478;SDS011;4276;49.354;6.804;2023-09-19T03:57:19;3.38;;;2.03;;
8478;SDS011;4276;49.354;6.804;2023-09-19T03:59:47;4.60;;;2.60;;
8478;SDS011;4276;49.354;6.804;2023-09-19T04:02:23;4.97;;;2.50;;
8478;SDS011;4276;49.354;6.804;2023-09-19T04:04:51;4.03;;;2.22;;
8478;SDS011;4276;49.354;6.804;2023-09-19T04:07:18;4.85;;;2.97;;
8478;SDS011;4276;49.354;6.804;2023-09-19T04:09:48;3.67;;;2.20;;
8478;SDS011;4276;49.354;6.804;2023-09-19T04:12:15;3.33;;;2.30;;
8478;SDS011;4276;49.354;6.804;2023-09-19T04:14:52;3.22;;;2.30;;
8478;SDS011;4276;49.354;6.804;2023-09-19T04:17:22;4.82;;;2.53;;
8478;SDS011;4276;49.354;6.804;2023-09-19T04:19:49;4.80;;;2.67;;
8478;SDS011;4276;49.354;6.804;2023-09-19T04:22:16;3.50;;;2.22;;
8478;SDS011;4276;49.354;6.804;2023-09-19T04:24:46;4.53;;;2.15;;
8478;SDS011;4276;49.354;6.804;2023-09-19T04:27:12;4.38;;;2.40;;
8478;SDS011;4276;49.354;6.804;2023-09-19T04:29:41;3.97;;;2.08;;
8478;SDS011;4276;49.354;6.804;2023-09-19T04:32:08;4.47;;;2.50;;
8478;SDS011;4276;49.354;6.804;2023-09-19T04:34:36;3.33;;;2.47;;
8478;SDS011;4276;49.354;6.804;2023-09-19T04:37:14;3.97;;;2.53;;
8478;SDS011;4276;49.354;6.804;2023-09-19T04:39:41;3.47;;;2.45;;
8478;SDS011;4276;49.354;6.804;2023-09-19T04:42:08;4.95;;;2.40;;
8478;SDS011;4276;49.354;6.804;2023-09-19T04:44:34;2.95;;;2.00;;
8478;SDS011;4276;49.354;6.804;2023-09-19T04:47:06;5.22;;;2.40;;
8478;SDS011;4276;49.354;6.804;2023-09-19T04:49:33;10.68;;;2.83;;
8478;SDS011;4276;49.354;6.804;2023-09-19T04:52:01;3.95;;;2.65;;
8478;SDS011;4276;49.354;6.804;2023-09-19T04:54:27;6.03;;;2.30;;
8478;SDS011;4276;49.354;6.804;2023-09-19T04:56:54;4.28;;;2.83;;
8478;SDS011;4276;49.354;6.804;2023-09-19T04:59:20;5.32;;;2.50;;
8478;SDS011;4276;49.354;6.804;2023-09-19T05:01:47;5.13;;;2.53;;
8478;SDS011;4276;49.354;6.804;2023-09-19T05:04:14;3.90;;;2.97;;
8478;SDS011;4276;49.354;6.804;2023-09-19T05:06:40;3.83;;;2.65;;
8478;SDS011;4276;49.354;6.804;2023-09-19T05:09:11;3.38;;;2.30;;
8478;SDS011;4276;49.354;6.804;2023-09-19T05:11:38;4.55;;;2.58;;
8478;SDS011;4276;49.354;6.804;2023-09-19T05:14:06;3.83;;;2.38;;
8478;SDS011;4276;49.354;6.804;2023-09-19T05:16:32;4.75;;;2.58;;
8478;SDS011;4276;49.354;6.804;2023-09-19T05:19:00;6.18;;;2.33;;
8478;SDS011;4276;49.354;6.804;2023-09-19T05:21:27;4.90;;;2.30;;
8478;SDS011;4276;49.354;6.804;2023-09-19T05:23:56;4.25;;;2.00;;
8478;SDS011;4276;49.354;6.804;2023-09-19T05:26:22;7.25;;;3.00;;
8478;SDS011;4276;49.354;6.804;2023-09-19T05:28:49;3.35;;;2.10;;
8478;SDS011;4276;49.354;6.804;2023-09-19T05:31:15;4.78;;;2.50;;
8478;SDS011;4276;49.354;6.804;2023-09-19T05:33:43;4.65;;;3.22;;
8478;SDS011;4276;49.354;6.804;2023-09-19T05:36:09;6.55;;;3.10;;
8478;SDS011;4276;49.354;6.804;2023-09-19T05:38:40;4.50;;;2.58;;
8478;SDS011;4276;49.354;6.804;2023-09-19T05:41:08;6.05;;;2.85;;
8478;SDS011;4276;49.354;6.804;2023-09-19T05:43:42;5.80;;;2.40;;
8478;SDS011;4276;49.354;6.804;2023-09-19T05:46:09;3.60;;;2.40;;
8478;SDS011;4276;49.354;6.804;2023-09-19T05:48:36;3.90;;;2.33;;
8478;SDS011;4276;49.354;6.804;2023-09-19T05:51:05;3.60;;;2.63;;
8478;SDS011;4276;49.354;6.804;2023-09-19T05:53:32;4.40;;;2.55;;
8478;SDS011;4276;49.354;6.804;2023-09-19T05:55:59;5.50;;;3.10;;
8478;SDS011;4276;49.354;6.804;2023-09-19T05:58:28;6.47;;;2.60;;
8478;SDS011;4276;49.354;6.804;2023-09-19T06:00:55;5.97;;;2.97;;
8478;SDS011;4276;49.354;6.804;2023-09-19T06:03:24;6.03;;;2.60;;
8478;SDS011;4276;49.354;6.804;2023-09-19T06:05:50;4.13;;;2.22;;
8478;SDS011;4276;49.354;6.804;2023-09-19T06:08:19;7.28;;;3.63;;
8478;SDS011;4276;49.354;6.804;2023-09-19T06:10:46;5.47;;;2.70;;
8478;SDS011;4276;49.354;6.804;2023-09-19T06:13:13;5.15;;;2.40;;
8478;SDS011;4276;49.354;6.804;2023-09-19T06:15:39;5.22;;;2.78;;
8478;SDS011;4276;49.354;6.804;2023-09-19T06:18:12;4.75;;;2.85;;
8478;SDS011;4276;49.354;6.804;2023-09-19T06:20:43;6.20;;;2.60;;
8478;SDS011;4276;49.354;6.804;2023-09-19T06:23:11;4.55;;;2.42;;
8478;SDS011;4276;49.354;6.804;2023-09-19T06:25:38;4.65;;;2.80;;
8478;SDS011;4276;49.354;6.804;2023-09-19T06:28:09;4.75;;;2.50;;
8478;SDS011;4276;49.354;6.804;2023-09-19T06:30:39;2.60;;;2.05;;
8478;SDS011;4276;49.354;6.804;2023-09-19T06:33:11;4.80;;;2.55;;
8478;SDS011;4276;49.354;6.804;2023-09-19T06:35:42;4.18;;;2.53;;
8478;SDS011;4276;49.354;6.804;2023-09-19T06:38:10;7.78;;;2.97;;
8478;SDS011;4276;49.354;6.804;2023-09-19T06:40:39;5.65;;;2.80;;
8478;SDS011;4276;49.354;6.804;2023-09-19T06:43:09;5.30;;;2.80;;
8478;SDS011;4276;49.354;6.804;2023-09-19T06:45:36;6.35;;;2.55;;
8478;SDS011;4276;49.354;6.804;2023-09-19T06:48:06;7.07;;;2.63;;
8478;SDS011;4276;49.354;6.804;2023-09-19T06:50:33;5.40;;;2.42;;
8478;SDS011;4276;49.354;6.804;2023-09-19T06:53:03;3.45;;;2.30;;
8478;SDS011;4276;49.354;6.804;2023-09-19T06:55:30;5.03;;;2.40;;
8478;SDS011;4276;49.354;6.804;2023-09-19T06:57:59;4.60;;;2.30;;
8478;SDS011;4276;49.354;6.804;2023-09-19T07:00:28;5.82;;;2.78;;
8478;SDS011;4276;49.354;6.804;2023-09-19T07:03:04;3.78;;;2.33;;
8478;SDS011;4276;49.354;6.804;2023-09-19T07:05:34;6.53;;;2.63;;
8478;SDS011;4276;49.354;6.804;2023-09-19T07:08:06;4.82;;;2.40;;
8478;SDS011;4276;49.354;6.804;2023-09-19T07:10:34;6.40;;;2.80;;
8478;SDS011;4276;49.354;6.804;2023-09-19T07:13:04;4.03;;;2.63;;
8478;SDS011;4276;49.354;6.804;2023-09-19T07:15:35;7.57;;;2.45;;
8478;SDS011;4276;49.354;6.804;2023-09-19T07:18:05;6.38;;;2.60;;
8478;SDS011;4276;49.354;6.804;2023-09-19T07:20:33;5.13;;;2.28;;
8478;SDS011;4276;49.354;6.804;2023-09-19T07:23:01;5.60;;;2.45;;
8478;SDS011;4276;49.354;6.804;2023-09-19T07:25:28;6.95;;;2.63;;
8478;SDS011;4276;49.354;6.804;2023-09-19T07:28:12;5.97;;;2.20;;
8478;SDS011;4276;49.354;6.804;2023-09-19T07:30:39;5.90;;;2.47;;
8478;SDS011;4276;49.354;6.804;2023-09-19T07:33:07;4.35;;;2.10;;
8478;SDS011;4276;49.354;6.804;2023-09-19T07:35:37;6.82;;;2.72;;
8478;SDS011;4276;49.354;6.804;2023-09-19T07:38:07;5.45;;;2.70;;
8478;SDS011;4276;49.354;6.804;2023-09-19T07:40:34;8.43;;;3.25;;
8478;SDS011;4276;49.354;6.804;2023-09-19T07:43:03;7.30;;;2.83;;
8478;SDS011;4276;49.354;6.804;2023-09-19T07:45:31;5.20;;;2.30;;
8478;SDS011;4276;49.354;6.804;2023-09-19T07:47:58;7.15;;;3.08;;
8478;SDS011;4276;49.354;6.804;2023-09-19T07:50:27;5.50;;;2.30;;
8478;SDS011;4276;49.354;6.804;2023-09-19T07:52:55;8.82;;;2.70;;
8478;SDS011;4276;49.354;6.804;2023-09-19T07:55:22;6.85;;;2.60;;
8478;SDS011;4276;49.354;6.804;2023-09-19T07:57:52;5.65;;;2.38;;
8478;SDS011;4276;49.354;6.804;2023-09-19T08:00:19;6.35;;;2.40;;
8478;SDS011;4276;49.354;6.804;2023-09-19T08:02:46;5.40;;;2.30;;
8478;SDS011;4276;49.354;6.804;2023-09-19T08:05:23;7.53;;;2.58;;
8478;SDS011;4276;49.354;6.804;2023-09-19T08:07:50;5.00;;;2.42;;
8478;SDS011;4276;49.354;6.804;2023-09-19T08:10:18;5.57;;;2.63;;
8478;SDS011;4276;49.354;6.804;2023-09-19T08:12:48;5.13;;;2.60;;
8478;SDS011;4276;49.354;6.804;2023-09-19T08:15:16;6.43;;;3.05;;
8478;SDS011;4276;49.354;6.804;2023-09-19T08:17:46;4.13;;;2.35;;
8478;SDS011;4276;49.354;6.804;2023-09-19T08:20:13;7.40;;;3.33;;
8478;SDS011;4276;49.354;6.804;2023-09-19T08:22:50;6.95;;;3.65;;
8478;SDS011;4276;49.354;6.804;2023-09-19T08:25:19;9.32;;;3.05;;
8478;SDS011;4276;49.354;6.804;2023-09-19T08:27:46;6.78;;;3.30;;
8478;SDS011;4276;49.354;6.804;2023-09-19T08:30:16;6.20;;;2.80;;
8478;SDS011;4276;49.354;6.804;2023-09-19T08:32:48;7.57;;;3.20;;
8478;SDS011;4276;49.354;6.804;2023-09-19T08:35:15;6.15;;;3.15;;
8478;SDS011;4276;49.354;6.804;2023-09-19T08:37:45;4.53;;;2.72;;
8478;SDS011;4276;49.354;6.804;2023-09-19T08:40:12;8.15;;;3.03;;
8478;SDS011;4276;49.354;6.804;2023-09-19T08:42:49;6.35;;;3.30;;
8478;SDS011;4276;49.354;6.804;2023-09-19T08:45:22;7.50;;;3.60;;
8478;SDS011;4276;49.354;6.804;2023-09-19T08:50:33;7.30;;;3.00;;
8478;SDS011;4276;49.354;6.804;2023-09-19T08:53:10;7.97;;;2.95;;
8478;SDS011;4276;49.354;6.804;2023-09-19T08:55:38;4.88;;;2.60;;
8478;SDS011;4276;49.354;6.804;2023-09-19T08:58:09;5.60;;;2.58;;
8478;SDS011;4276;49.354;6.804;2023-09-19T09:00:37;4.93;;;2.20;;
8478;SDS011;4276;49.354;6.804;2023-09-19T09:03:03;4.32;;;2.45;;
8478;SDS011;4276;49.354;6.804;2023-09-19T09:05:33;4.20;;;2.30;;
8478;SDS011;4276;49.354;6.804;2023-09-19T09:08:01;5.90;;;2.60;;
8478;SDS011;4276;49.354;6.804;2023-09-19T09:10:28;5.28;;;2.22;;
8478;SDS011;4276;49.354;6.804;2023-09-19T09:12:55;3.78;;;2.58;;
8478;SDS011;4276;49.354;6.804;2023-09-19T09:15:25;4.70;;;2.30;;
8478;SDS011;4276;49.354;6.804;2023-09-19T09:17:51;7.25;;;2.30;;
8478;SDS011;4276;49.354;6.804;2023-09-19T09:20:21;9.38;;;2.63;;
8478;SDS011;4276;49.354;6.804;2023-09-19T09:22:52;6.22;;;2.50;;
8478;SDS011;4276;49.354;6.804;2023-09-19T09:25:22;5.03;;;2.13;;
8478;SDS011;4276;49.354;6.804;2023-09-19T09:27:58;3.90;;;2.15;;
8478;SDS011;4276;49.354;6.804;2023-09-19T09:30:35;5.10;;;2.33;;
8478;SDS011;4276;49.354;6.804;2023-09-19T09:33:10;7.25;;;2.50;;
8478;SDS011;4276;49.354;6.804;2023-09-19T09:38:19;6.38;;;2.15;;
8478;SDS011;4276;49.354;6.804;2023-09-19T09:40:47;4.28;;;2.17;;
8478;SDS011;4276;49.354;6.804;2023-09-19T09:43:29;3.42;;;1.90;;
8478;SDS011;4276;49.354;6.804;2023-09-19T09:46:06;4.82;;;1.88;;
8478;SDS011;4276;49.354;6.804;2023-09-19T09:48:55;3.42;;;1.65;;
8478;SDS011;4276;49.354;6.804;2023-09-19T09:54:37;3.53;;;1.80;;
8478;SDS011;4276;49.354;6.804;2023-09-19T09:57:09;3.33;;;1.85;;
8478;SDS011;4276;49.354;6.804;2023-09-19T09:59:44;2.67;;;1.70;;
8478;SDS011;4276;49.354;6.804;2023-09-19T10:02:20;3.60;;;2.10;;
8478;SDS011;4276;49.354;6.804;2023-09-19T10:05:00;2.80;;;1.73;;
8478;SDS011;4276;49.354;6.804;2023-09-19T10:07:41;2.95;;;2.10;;
8478;SDS011;4276;49.354;6.804;2023-09-19T10:10:28;4.03;;;2.42;;
8478;SDS011;4276;49.354;6.804;2023-09-19T10:12:56;2.15;;;1.75;;
8478;SDS011;4276;49.354;6.804;2023-09-19T10:15:31;6.63;;;2.10;;
8478;SDS011;4276;49.354;6.804;2023-09-19T10:18:00;3.20;;;2.10;;
8478;SDS011;4276;49.354;6.804;2023-09-19T10:20:28;2.80;;;1.70;;
8478;SDS011;4276;49.354;6.804;2023-09-19T10:23:07;2.53;;;1.90;;
8478;SDS011;4276;49.354;6.804;2023-09-19T10:25:37;3.92;;;1.73;;
8478;SDS011;4276;49.354;6.804;2023-09-19T10:28:05;3.45;;;1.80;;
8478;SDS011;4276;49.354;6.804;2023-09-19T10:30:47;3.03;;;1.73;;
8478;SDS011;4276;49.354;6.804;2023-09-19T10:33:18;4.95;;;2.13;;
8478;SDS011;4276;49.354;6.804;2023-09-19T10:35:52;2.78;;;1.50;;
8478;SDS011;4276;49.354;6.804;2023-09-19T10:38:26;3.30;;;1.65;;
8478;SDS011;4276;49.354;6.804;2023-09-19T10:40:55;3.75;;;1.50;;
8478;SDS011;4276;49.354;6.804;2023-09-19T10:43:29;3.17;;;1.83;;
8478;SDS011;4276;49.354;6.804;2023-09-19T10:46:02;2.38;;;1.75;;
8478;SDS011;4276;49.354;6.804;2023-09-19T10:48:32;3.10;;;1.80;;
8478;SDS011;4276;49.354;6.804;2023-09-19T10:51:18;2.65;;;1.55;;
8478;SDS011;4276;49.354;6.804;2023-09-19T10:54:05;3.35;;;1.90;;
8478;SDS011;4276;49.354;6.804;2023-09-19T10:56:42;4.65;;;1.95;;
8478;SDS011;4276;49.354;6.804;2023-09-19T10:59:16;3.10;;;1.80;;
8478;SDS011;4276;49.354;6.804;2023-09-19T11:01:47;3.05;;;1.70;;
8478;SDS011;4276;49.354;6.804;2023-09-19T11:07:01;3.42;;;1.85;;
8478;SDS011;4276;49.354;6.804;2023-09-19T11:14:59;3.50;;;1.85;;
8478;SDS011;4276;49.354;6.804;2023-09-19T11:17:35;3.85;;;2.20;;
8478;SDS011;4276;49.354;6.804;2023-09-19T11:30:52;1.92;;;1.80;;
8478;SDS011;4276;49.354;6.804;2023-09-19T11:33:22;2.72;;;1.70;;
8478;SDS011;4276;49.354;6.804;2023-09-19T11:43:53;3.55;;;1.67;;
8478;SDS011;4276;49.354;6.804;2023-09-19T11:49:17;2.05;;;1.52;;
8478;SDS011;4276;49.354;6.804;2023-09-19T11:51:50;2.55;;;1.67;;
8478;SDS011;4276;49.354;6.804;2023-09-19T11:54:20;2.67;;;1.73;;
8478;SDS011;4276;49.354;6.804;2023-09-19T11:56:51;2.88;;;1.63;;
8478;SDS011;4276;49.354;6.804;2023-09-19T11:59:21;1.75;;;1.63;;
8478;SDS011;4276;49.354;6.804;2023-09-19T12:02:00;1.83;;;1.48;;
8478;SDS011;4276;49.354;6.804;2023-09-19T12:04:35;2.72;;;1.60;;
8478;SDS011;4276;49.354;6.804;2023-09-19T12:07:07;2.05;;;1.40;;
8478;SDS011;4276;49.354;6.804;2023-09-19T12:09:42;2.53;;;1.70;;
8478;SDS011;4276;49.354;6.804;2023-09-19T12:12:10;2.55;;;1.40;;
8478;SDS011;4276;49.354;6.804;2023-09-19T12:14:41;2.40;;;1.60;;
8478;SDS011;4276;49.354;6.804;2023-09-19T12:17:14;3.22;;;1.80;;
8478;SDS011;4276;49.354;6.804;2023-09-19T12:19:49;2.30;;;1.48;;
8478;SDS011;4276;49.354;6.804;2023-09-19T12:22:17;2.85;;;1.55;;
8478;SDS011;4276;49.354;6.804;2023-09-19T12:24:46;2.72;;;1.30;;
8478;SDS011;4276;49.354;6.804;2023-09-19T12:27:14;2.67;;;1.70;;
8478;SDS011;4276;49.354;6.804;2023-09-19T12:29:48;3.30;;;1.58;;
8478;SDS011;4276;49.354;6.804;2023-09-19T12:32:16;3.15;;;1.83;;
8478;SDS011;4276;49.354;6.804;2023-09-19T12:34:51;1.38;;;1.27;;
8478;SDS011;4276;49.354;6.804;2023-09-19T12:37:23;2.63;;;1.65;;
8478;SDS011;4276;49.354;6.804;2023-09-19T12:40:06;3.03;;;1.40;;
8478;SDS011;4276;49.354;6.804;2023-09-19T12:42:52;3.08;;;1.73;;
8478;SDS011;4276;49.354;6.804;2023-09-19T12:45:22;2.08;;;1.27;;
8478;SDS011;4276;49.354;6.804;2023-09-19T12:51:08;2.15;;;1.55;;
8478;SDS011;4276;49.354;6.804;2023-09-19T12:56:16;1.55;;;1.30;;
8478;SDS011;4276;49.354;6.804;2023-09-19T12:58:52;2.03;;;1.55;;
8478;SDS011;4276;49.354;6.804;2023-09-19T13:01:23;1.60;;;1.50;;
8478;SDS011;4276;49.354;6.804;2023-09-19T13:04:11;2.70;;;1.50;;
8478;SDS011;4276;49.354;6.804;2023-09-19T13:06:47;2.70;;;1.50;;
8478;SDS011;4276;49.354;6.804;2023-09-19T13:09:16;3.33;;;1.58;;
8478;SDS011;4276;49.354;6.804;2023-09-19T13:12:01;2.65;;;1.65;;
8478;SDS011;4276;49.354;6.804;2023-09-19T13:14:29;2.53;;;1.20;;
8478;SDS011;4276;49.354;6.804;2023-09-19T13:17:07;3.50;;;1.65;;
8478;SDS011;4276;49.354;6.804;2023-09-19T13:19:46;1.60;;;1.50;;
8478;SDS011;4276;49.354;6.804;2023-09-19T13:22:40;3.30;;;1.58;;
8478;SDS011;4276;49.354;6.804;2023-09-19T13:25:21;2.25;;;1.70;;
8478;SDS011;4276;49.354;6.804;2023-09-19T13:27:49;2.20;;;1.40;;
8478;SDS011;4276;49.354;6.804;2023-09-19T13:30:18;2.05;;;1.33;;
8478;SDS011;4276;49.354;6.804;2023-09-19T13:32:45;4.28;;;1.60;;
8478;SDS011;4276;49.354;6.804;2023-09-19T13:35:14;2.58;;;1.55;;
8478;SDS011;4276;49.354;6.804;2023-09-19T13:37:41;1.95;;;1.50;;
8478;SDS011;4276;49.354;6.804;2023-09-19T13:40:10;1.73;;;1.27;;
8478;SDS011;4276;49.354;6.804;2023-09-19T13:42:38;4.10;;;1.42;;
8478;SDS011;4276;49.354;6.804;2023-09-19T13:45:07;2.80;;;1.50;;
8478;SDS011;4276;49.354;6.804;2023-09-19T13:47:38;2.63;;;1.23;;
8478;SDS011;4276;49.354;6.804;2023-09-19T13:50:05;3.15;;;1.13;;
8478;SDS011;4276;49.354;6.804;2023-09-19T13:52:34;1.95;;;1.48;;
8478;SDS011;4276;49.354;6.804;2023-09-19T13:55:01;2.95;;;1.20;;
8478;SDS011;4276;49.354;6.804;2023-09-19T13:57:27;2.95;;;1.60;;
8478;SDS011;4276;49.354;6.804;2023-09-19T13:59:55;1.85;;;1.60;;
8478;SDS011;4276;49.354;6.804;2023-09-19T14:02:22;1.88;;;1.35;;
8478;SDS011;4276;49.354;6.804;2023-09-19T14:04:52;1.58;;;1.48;;
8478;SDS011;4276;49.354;6.804;2023-09-19T14:07:19;3.67;;;1.75;;
8478;SDS011;4276;49.354;6.804;2023-09-19T14:09:46;2.67;;;1.58;;
8478;SDS011;4276;49.354;6.804;2023-09-19T14:12:13;2.53;;;1.50;;
8478;SDS011;4276;49.354;6.804;2023-09-19T14:14:41;2.40;;;1.40;;
8478;SDS011;4276;49.354;6.804;2023-09-19T14:17:08;3.92;;;1.13;;
8478;SDS011;4276;49.354;6.804;2023-09-19T14:19:36;2.63;;;1.08;;
8478;SDS011;4276;49.354;6.804;2023-09-19T14:22:04;1.25;;;1.15;;
8478;SDS011;4276;49.354;6.804;2023-09-19T14:24:34;3.67;;;1.60;;
8478;SDS011;4276;49.354;6.804;2023-09-19T14:27:01;1.50;;;1.38;;
8478;SDS011;4276;49.354;6.804;2023-09-19T14:29:30;1.48;;;1.10;;
8478;SDS011;4276;49.354;6.804;2023-09-19T14:31:58;2.60;;;1.25;;
8478;SDS011;4276;49.354;6.804;2023-09-19T14:34:25;1.83;;;1.17;;
8478;SDS011;4276;49.354;6.804;2023-09-19T14:36:52;2.40;;;1.40;;
8478;SDS011;4276;49.354;6.804;2023-09-19T14:39:20;2.65;;;1.40;;
8478;SDS011;4276;49.354;6.804;2023-09-19T14:41:47;2.17;;;1.52;;
8478;SDS011;4276;49.354;6.804;2023-09-19T14:44:14;2.25;;;1.50;;
8478;SDS011;4276;49.354;6.804;2023-09-19T14:46:42;1.88;;;1.30;;
8478;SDS011;4276;49.354;6.804;2023-09-19T14:49:12;2.47;;;1.50;;
8478;SDS011;4276;49.354;6.804;2023-09-19T14:51:38;1.73;;;1.40;;
8478;SDS011;4276;49.354;6.804;2023-09-19T14:54:10;1.65;;;1.38;;
8478;SDS011;4276;49.354;6.804;2023-09-19T14:56:36;2.50;;;1.58;;
8478;SDS011;4276;49.354;6.804;2023-09-19T14:59:13;1.63;;;1.30;;
8478;SDS011;4276;49.354;6.804;2023-09-19T15:01:42;1.50;;;1.38;;
8478;SDS011;4276;49.354;6.804;2023-09-19T15:04:09;1.38;;;1.27;;
8478;SDS011;4276;49.354;6.804;2023-09-19T15:06:36;1.40;;;1.30;;
8478;SDS011;4276;49.354;6.804;2023-09-19T15:09:04;1.58;;;1.30;;
8478;SDS011;4276;49.354;6.804;2023-09-19T15:11:37;1.92;;;1.08;;
8478;SDS011;4276;49.354;6.804;2023-09-19T15:14:03;3.00;;;1.38;;
8478;SDS011;4276;49.354;6.804;2023-09-19T15:16:30;2.13;;;1.50;;
8478;SDS011;4276;49.354;6.804;2023-09-19T15:18:58;2.08;;;1.48;;
8478;SDS011;4276;49.354;6.804;2023-09-19T15:21:25;1.90;;;1.38;;
8478;SDS011;4276;49.354;6.804;2023-09-19T15:23:51;2.20;;;1.40;;
8478;SDS011;4276;49.354;6.804;2023-09-19T15:26:18;2.03;;;1.10;;
8478;SDS011;4276;49.354;6.804;2023-09-19T15:28:48;1.20;;;1.10;;
8478;SDS011;4276;49.354;6.804;2023-09-19T15:31:15;2.45;;;1.52;;
8478;SDS011;4276;49.354;6.804;2023-09-19T15:33:42;2.92;;;1.52;;
8478;SDS011;4276;49.354;6.804;2023-09-19T15:36:12;2.97;;;1.38;;
8478;SDS011;4276;49.354;6.804;2023-09-19T15:41:29;1.73;;;1.20;;
8478;SDS011;4276;49.354;6.804;2023-09-19T15:43:57;1.25;;;1.15;;
8478;SDS011;4276;49.354;6.804;2023-09-19T15:46:28;1.80;;;1.00;;
8478;SDS011;4276;49.354;6.804;2023-09-19T15:48:59;1.27;;;1.02;;
8478;SDS011;4276;49.354;6.804;2023-09-19T15:51:27;1.20;;;1.10;;
8478;SDS011;4276;49.354;6.804;2023-09-19T15:53:54;1.55;;;1.45;;
8478;SDS011;4276;49.354;6.804;2023-09-19T15:56:23;1.30;;;1.20;;
8478;SDS011;4276;49.354;6.804;2023-09-19T15:58:50;1.20;;;1.10;;
8478;SDS011;4276;49.354;6.804;2023-09-19T16:01:18;1.35;;;1.10;;
8478;SDS011;4276;49.354;6.804;2023-09-19T16:03:48;1.83;;;1.00;;
8478;SDS011;4276;49.354;6.804;2023-09-19T16:06:17;1.35;;;1.20;;
8478;SDS011;4276;49.354;6.804;2023-09-19T16:08:48;1.83;;;1.02;;
8478;SDS011;4276;49.354;6.804;2023-09-19T16:11:16;2.35;;;1.23;;
8478;SDS011;4276;49.354;6.804;2023-09-19T16:13:44;2.00;;;1.17;;
8478;SDS011;4276;49.354;6.804;2023-09-19T16:16:14;1.30;;;1.20;;
8478;SDS011;4276;49.354;6.804;2023-09-19T16:18:46;1.63;;;1.27;;
8478;SDS011;4276;49.354;6.804;2023-09-19T16:21:15;3.30;;;1.15;;
8478;SDS011;4276;49.354;6.804;2023-09-19T16:23:46;2.45;;;1.63;;
8478;SDS011;4276;49.354;6.804;2023-09-19T16:26:13;1.70;;;1.58;;
8478;SDS011;4276;49.354;6.804;2023-09-19T16:28:41;1.73;;;1.33;;
8478;SDS011;4276;49.354;6.804;2023-09-19T16:31:10;2.30;;;1.42;;
8478;SDS011;4276;49.354;6.804;2023-09-19T16:33:38;1.23;;;1.10;;